NCAR-RAP Real-Time Weather Data

Output produced by METARs form (26 May 2022  08:54 UTC)
found at http://weather.rap.ucar.edu/surface/
 
KBWI 260754Z 09005KT 10SM OVC029 16/11 A3027 RMK AO2 SLP251 T01560111
KBWI 260654Z 09005KT 10SM BKN028 OVC055 16/11 A3028 RMK AO2 SLP255 T01560111
KBWI 260554Z 11007KT 10SM OVC055 16/11 A3029 RMK AO2 SLP258 BINOVC T01610106 10194 20156 58008
KBWI 260454Z 11005KT 10SM OVC055 16/09 A3031 RMK AO2 SLP264 T01610094 402330144
KBWI 260354Z 09008KT 10SM BKN055 17/07 A3031 RMK AO2 SLP265 T01670067
KBWI 260254Z 10007KT 10SM BKN055 17/07 A3032 RMK AO2 SLP266 T01720072 53000
KBWI 260154Z 13004KT 10SM BKN055 BKN250 18/07 A3032 RMK AO2 SLP267 T01780072
KBWI 260054Z 11008KT 10SM SCT065 BKN250 18/08 A3031 RMK AO2 SLP263 T01830078
KBWI 252354Z 10009KT 10SM BKN060 BKN150 19/08 A3032 RMK AO2 SLP265 T01940078 10233 20194 53007
KBWI 252254Z 11010KT 10SM BKN060 21/08 A3030 RMK AO2 SLP260 T02060078
KBWI 252154Z 11011KT 10SM BKN065 22/08 A3029 RMK AO2 SLP257 T02170078
KBWI 252054Z 12010KT 10SM FEW043 BKN065 BKN250 22/08 A3029 RMK AO2 SLP258 T02220083 58011
KBWI 251954Z 11008G19KT 090V150 10SM FEW043 BKN060 BKN250 22/08 A3030 RMK AO2 SLP260 T02220083
KBWI 251854Z 11011KT 10SM FEW045 BKN060 BKN250 22/10 A3032 RMK AO2 SLP268 T02220100
KBWI 251754Z 08015G21KT 10SM FEW038 BKN060 BKN250 22/11 A3033 RMK AO2 SLP269 T02220106 10228 20156 58006
KBWI 251654Z 07008G17KT 040V120 10SM SCT032 BKN060 BKN250 22/13 A3034 RMK AO2 SLP272 T02170128
KBWI 251554Z 08010KT 10SM SCT027 OVC060 20/12 A3035 RMK AO2 SLP277 T02000122
KBWI 251454Z 08008G16KT 10SM SCT050 BKN060 19/12 A3034 RMK AO2 SLP275 T01890122 51006
KBWI 251354Z 09009KT 10SM SCT029 OVC060 18/12 A3034 RMK AO2 SLP274 T01780122
KBWI 251319Z 07008KT 10SM SCT020 SCT032 OVC065 17/12 A3035 RMK AO2 T01720122
KBWI 251254Z 09007KT 10SM OVC018 17/12 A3035 RMK AO2 SLP277 T01720122
KBWI 251154Z 06009KT 10SM BKN018 16/11 A3033 RMK AO2 SLP269 70005 T01560111 10156 20144 51018
KBWI 251054Z 04006KT 10SM BKN014 OVC026 15/11 A3032 RMK AO2 SLP266 T01500106
KBWI 251038Z 04007KT 10SM OVC014 15/10 A3032 RMK AO2 T01500100
KBWI 250954Z 02005KT 10SM OVC017 15/10 A3030 RMK AO2 SLP260 T01500100
KBWI 250854Z 03005KT 10SM OVC023 15/11 A3028 RMK AO2 SLP251 T01500106 55000
KBWI 250827Z 08007KT 10SM SCT023 15/10 A3027 RMK AO2 T01500100
KBWI 250754Z 03004KT 10SM BKN023 15/09 A3027 RMK AO2 SLP249 T01500094
KBWI 250724Z 04004KT 10SM BKN025 15/09 A3027 RMK AO2 T01500094
KBWI 250654Z 04004KT 10SM FEW050 SCT250 15/08 A3027 RMK AO2 SLP251 T01500083
KBWI 250554Z 07004KT 10SM FEW050 SCT250 15/08 A3028 RMK AO2 SLP252 T01500083 10172 20150 58005
KBWI 250454Z 07007KT 10SM BKN050 17/09 A3029 RMK AO2 SLP255 T01670089 401940156
KBWI 250354Z 06006KT 10SM BKN050 BKN085 16/09 A3028 RMK AO2 SLP254 T01610094
KBWI 250254Z 00000KT 10SM BKN085 16/11 A3029 RMK AO2 SLP256 T01610106 53011
KBWI 250154Z 12004KT 10SM SCT065 BKN085 17/10 A3027 RMK AO2 SLP251 T01670100
KBWI 250054Z 11006KT 10SM FEW050 BKN065 17/11 A3026 RMK AO2 SLP248 T01720111
KBWI 242354Z 10005KT 10SM BKN049 17/11 A3026 RMK AO2 SLP245 T01720111 10194 20172 53005
KBWI 242254Z 09007KT 10SM FEW028 OVC045 17/11 A3025 RMK AO2 SLP243 T01720106
KBWI 242154Z 08011KT 10SM FEW028 BKN044 OVC070 18/10 A3025 RMK AO2 SLP241 T01780100
KBWI 242054Z 09011KT 10SM FEW028 BKN042 OVC070 18/11 A3024 RMK AO2 SLP240 T01830106 50001
KBWI 241954Z 09009KT 10SM SCT031 BKN042 OVC070 18/12 A3024 RMK AO2 SLP241 T01830117
KBWI 241854Z 11015KT 10SM SCT029 BKN040 OVC065 18/11 A3024 RMK AO2 SLP240 T01830106
KBWI 241754Z 10011KT 10SM SCT024 BKN036 OVC065 18/13 A3024 RMK AO2 SLP239 60005 T01830128 10183 20156 58003
KBWI 241654Z 10015G23KT 7SM SCT022 BKN031 OVC060 17/13 A3025 RMK AO2 PK WND 07028/1605 DZE13 SLP241 P0001 T01720128
KBWI 241648Z 10013G20KT 7SM SCT022 BKN031 OVC060 17/13 A3025 RMK AO2 PK WND 07028/1605 DZE13 P0001
KBWI 241613Z 09012G28KT 4SM BR SCT006 BKN015 OVC022 16/14 A3025 RMK AO2 PK WND 07028/1605 DZE13 P0000 T01560139
KBWI 241605Z 07013G28KT 2 1/2SM -DZ BR BKN006 OVC012 16/15 A3025 RMK AO2 PK WND 07028/1605 P0000 T01610150
KBWI 241554Z 06009KT 3SM -DZ BR SCT006 BKN012 OVC020 16/15 A3025 RMK AO2 RAE42DZB42 SLP242 P0002 T01610150
KBWI 241524Z 06007KT 2SM -RA BR SCT006 BKN012 OVC020 16/14 A3024 RMK AO2 P0001 T01610144
KBWI 241454Z 06009KT 1 1/2SM -RA BR FEW006 BKN015 OVC022 16/14 A3025 RMK AO2 SLP242 P0002 60002 T01560139 51012
KBWI 241433Z 07007KT 2 1/2SM -RA BR SCT013 BKN019 OVC030 16/13 A3025 RMK AO2 P0001 T01560133
KBWI 241408Z 07009KT 7SM -RA BKN021 OVC034 16/13 A3025 RMK AO2 P0000 T01610133
KBWI 241354Z 09008KT 7SM -RA FEW023 BKN034 OVC050 17/13 A3025 RMK AO2 RAB02E33B49 SLP242 P0000 T01670133
KBWI 241254Z 09007KT 7SM SCT031 BKN045 OVC090 16/13 A3024 RMK AO2 SLP238 T01610128
KBWI 241154Z 08005KT 7SM FEW015 BKN045 OVC060 16/13 A3021 RMK AO2 RAE08 SLP231 P0000 60014 70015 T01610133 10161 20156 53015
KBWI 241054Z 08006KT 7SM -RA SCT045 BKN060 OVC090 16/13 A3020 RMK AO2 SLP224 P0003 T01560133
KBWI 240954Z 07009KT 7SM -RA FEW016 BKN043 OVC075 16/13 A3017 RMK AO2 SLP215 P0003 T01560133